createdAt,value
2016-11-29T00:00:40.127Z,-11.22
2016-11-29T00:01:40.148Z,-11.22
2016-11-29T00:02:40.085Z,-11
2016-11-29T00:03:40.065Z,-11.09
2016-11-29T00:04:40.032Z,-11.1
2016-11-29T00:05:40.016Z,-11.22
2016-11-29T00:06:40.011Z,-11.25
2016-11-29T00:07:39.972Z,-11.28
2016-11-29T00:08:39.962Z,-11.32
2016-11-29T00:09:39.962Z,-11.45
2016-11-29T00:10:39.892Z,-11.46
2016-11-29T00:11:39.874Z,-11.39
2016-11-29T00:12:39.832Z,-11.43
2016-11-29T00:13:39.824Z,-11.45
2016-11-29T00:14:39.780Z,-11.43
2016-11-29T00:15:39.802Z,-11.55
2016-11-29T00:16:39.747Z,-11.52
2016-11-29T00:17:39.697Z,-11.52
2016-11-29T00:18:39.690Z,-11.42
2016-11-29T00:19:39.679Z,-11.38
2016-11-29T00:20:39.626Z,-11.52
2016-11-29T00:21:39.610Z,-11.53
2016-11-29T00:22:39.599Z,-11.53
2016-11-29T00:23:39.554Z,-11.61
2016-11-29T00:24:39.548Z,-11.53
2016-11-29T00:25:39.496Z,-11.55
2016-11-29T00:26:39.477Z,-11.38
2016-11-29T00:27:39.434Z,-11.39
2016-11-29T00:28:39.426Z,-11.42
2016-11-29T00:29:39.403Z,-11.34
2016-11-29T00:30:39.394Z,-11.38
2016-11-29T00:31:39.362Z,-11.39
2016-11-29T00:32:39.313Z,-11.45
2016-11-29T00:33:39.295Z,-11.55
2016-11-29T00:34:39.264Z,-11.46
2016-11-29T00:35:39.264Z,-11.52
2016-11-29T00:36:39.231Z,-11.61
2016-11-29T00:37:39.186Z,-11.58
2016-11-29T00:38:39.170Z,-11.63
2016-11-29T00:39:39.154Z,-11.76
2016-11-29T00:40:39.125Z,-11.76
2016-11-29T00:41:39.089Z,-11.82
2016-11-29T00:42:39.050Z,-11.7
2016-11-29T00:43:39.048Z,-11.66
2016-11-29T00:44:39.022Z,-11.76
2016-11-29T00:45:38.983Z,-11.52
2016-11-29T00:46:38.969Z,-11.58
2016-11-29T00:47:38.959Z,-11.6
2016-11-29T00:48:38.915Z,-11.56
2016-11-29T00:49:38.896Z,-11.64
2016-11-29T00:50:38.876Z,-11.64
2016-11-29T00:51:38.850Z,-11.7
2016-11-29T00:52:38.844Z,-11.82
2016-11-29T00:53:38.790Z,-11.73
2016-11-29T00:54:38.760Z,-11.66
2016-11-29T00:55:38.732Z,-11.67
2016-11-29T00:56:38.706Z,-11.71
2016-11-29T00:57:38.679Z,-11.7
2016-11-29T00:58:38.675Z,-11.76
2016-11-29T00:59:38.645Z,-11.94
2016-11-29T01:00:38.613Z,-11.61
2016-11-29T01:01:38.576Z,-11.58
2016-11-29T01:02:38.556Z,-11.38
2016-11-29T01:03:38.535Z,-11.22
2016-11-29T01:04:38.501Z,-11.34
2016-11-29T01:05:38.480Z,-11.19
2016-11-29T01:06:38.493Z,-11.14
2016-11-29T01:07:38.420Z,-11.19
2016-11-29T01:08:38.397Z,-11.2
2016-11-29T01:09:38.380Z,-11.22
2016-11-29T01:10:38.351Z,-11.16
2016-11-29T01:11:38.342Z,-11.16
2016-11-29T01:12:38.295Z,-10.96
2016-11-29T01:13:38.278Z,-10.92
2016-11-29T01:14:38.263Z,-10.93
2016-11-29T01:15:38.212Z,-11.02
2016-11-29T01:16:38.200Z,-11.13
2016-11-29T01:17:38.172Z,-11.24
2016-11-29T01:18:38.156Z,-11.32
2016-11-29T01:19:38.118Z,-11.34
2016-11-29T01:20:38.088Z,-11.31
2016-11-29T01:21:38.078Z,-11.2
2016-11-29T01:22:38.054Z,-11.19
2016-11-29T01:23:38.018Z,-11.28
2016-11-29T01:24:37.975Z,-11.42
2016-11-29T01:25:37.967Z,-11.45
2016-11-29T01:26:37.959Z,-11.39
2016-11-29T01:27:37.899Z,-11.34
2016-11-29T01:28:37.892Z,-11.43
2016-11-29T01:29:37.863Z,-11.38
2016-11-29T01:30:37.835Z,-11.35
2016-11-29T01:31:37.799Z,-11.31
2016-11-29T01:32:37.777Z,-11.37
2016-11-29T01:33:37.748Z,-11.49
2016-11-29T01:34:37.739Z,-11.5
2016-11-29T01:35:37.738Z,-11.45
2016-11-29T01:36:37.712Z,-11.45
2016-11-29T01:37:37.684Z,-11.43
2016-11-29T01:38:37.641Z,-11.45
2016-11-29T01:39:37.594Z,-11.38
2016-11-29T01:40:37.584Z,-11.45
2016-11-29T01:41:37.573Z,-11.52
2016-11-29T01:42:37.550Z,-11.53
2016-11-29T01:43:37.508Z,-11.58
2016-11-29T01:44:37.483Z,-11.58
2016-11-29T01:45:37.464Z,-11.64
2016-11-29T01:46:37.445Z,-11.6
2016-11-29T01:47:37.720Z,-11.73
2016-11-29T01:48:37.389Z,-11.67
2016-11-29T01:49:37.375Z,-11.73
2016-11-29T01:50:37.338Z,-11.73
2016-11-29T01:51:37.289Z,-12.06
2016-11-29T01:52:37.297Z,-12.2
2016-11-29T01:53:37.247Z,-11.92
2016-11-29T01:54:37.545Z,-11.63
2016-11-29T01:55:37.224Z,-11.46
2016-11-29T01:56:37.165Z,-11.42
2016-11-29T01:57:37.162Z,-11.35
2016-11-29T01:58:37.156Z,-11.31
2016-11-29T01:59:37.104Z,-11.2
2016-11-29T02:00:37.091Z,-11.09
2016-11-29T02:01:37.065Z,-11.06
2016-11-29T02:02:37.025Z,-10.89
2016-11-29T02:03:36.993Z,-10.99
2016-11-29T02:04:36.961Z,-11.1
2016-11-29T02:05:36.951Z,-11.07
2016-11-29T02:06:36.928Z,-11.24
2016-11-29T02:07:36.885Z,-11.22
2016-11-29T02:08:36.872Z,-11.32
2016-11-29T02:09:36.848Z,-11.37
2016-11-29T02:10:36.840Z,-11.45
2016-11-29T02:11:36.843Z,-11.52
2016-11-29T02:12:36.763Z,-11.53
2016-11-29T02:13:36.740Z,-11.63
2016-11-29T02:14:36.718Z,-11.76
2016-11-29T02:15:36.717Z,-11.87
2016-11-29T02:16:36.703Z,-11.98
2016-11-29T02:17:36.656Z,-11.77
2016-11-29T02:18:36.628Z,-11.63
2016-11-29T02:19:36.595Z,-11.63
2016-11-29T02:20:36.591Z,-11.56
2016-11-29T02:21:36.554Z,-11.19
2016-11-29T02:22:36.540Z,-10.93
2016-11-29T02:23:36.503Z,-10.92
2016-11-29T02:24:36.471Z,-10.93
2016-11-29T02:25:36.437Z,-10.73
2016-11-29T02:26:36.407Z,-10.57
2016-11-29T02:27:36.380Z,-10.55
2016-11-29T02:28:36.360Z,-10.21
2016-11-29T02:29:36.348Z,-10.08
2016-11-29T02:30:36.316Z,-10.32
2016-11-29T02:31:36.398Z,-10.24
2016-11-29T02:32:36.251Z,-10.23
2016-11-29T02:33:36.252Z,-10.37
2016-11-29T02:34:36.235Z,-10.32
2016-11-29T02:35:36.212Z,-10.52
2016-11-29T02:36:36.182Z,-10.57
2016-11-29T02:37:36.153Z,-10.59
2016-11-29T02:38:36.114Z,-10.66
2016-11-29T02:39:36.121Z,-10.73
2016-11-29T02:40:36.063Z,-10.7
2016-11-29T02:41:36.346Z,-10.74
2016-11-29T02:42:35.999Z,-10.68
2016-11-29T02:43:35.998Z,-10.66
2016-11-29T02:44:35.962Z,-10.67
2016-11-29T02:45:35.945Z,-10.7
2016-11-29T02:46:35.903Z,-10.88
2016-11-29T02:47:35.892Z,-10.93
2016-11-29T02:48:35.865Z,-11.19
2016-11-29T02:49:35.840Z,-11.24
2016-11-29T02:50:35.806Z,-11.27
2016-11-29T02:51:35.792Z,-11.29
2016-11-29T02:52:35.778Z,-11.37
2016-11-29T02:53:35.751Z,-11.37
2016-11-29T02:54:35.736Z,-11.38
2016-11-29T02:55:35.694Z,-11.45
2016-11-29T02:56:35.666Z,-11.48
2016-11-29T02:57:35.641Z,-11.39
2016-11-29T02:58:35.625Z,-11.43
2016-11-29T02:59:35.591Z,-11.43
2016-11-29T03:00:35.575Z,-11.42
2016-11-29T03:01:35.534Z,-11.43
2016-11-29T03:02:35.524Z,-11.45
2016-11-29T03:03:35.493Z,-11.43
2016-11-29T03:04:35.502Z,-11.39
2016-11-29T03:05:35.445Z,-11.31
2016-11-29T03:06:35.414Z,-11.31
2016-11-29T03:07:35.394Z,-11.38
2016-11-29T03:08:35.389Z,-11.31
2016-11-29T03:09:35.358Z,-11.29
2016-11-29T03:10:35.342Z,-11.25
2016-11-29T03:11:35.308Z,-11.13
2016-11-29T03:12:35.257Z,-11.14
2016-11-29T03:13:35.249Z,-11.11
2016-11-29T03:14:35.203Z,-10.99
2016-11-29T03:15:35.223Z,-11.07
2016-11-29T03:16:35.193Z,-11.07
2016-11-29T03:17:35.154Z,-11.02
2016-11-29T03:18:35.123Z,-11.07
2016-11-29T03:19:35.113Z,-11.07
2016-11-29T03:20:35.089Z,-11
2016-11-29T03:21:35.051Z,-10.99
2016-11-29T03:22:35.008Z,-10.9
2016-11-29T03:23:34.998Z,-10.56
2016-11-29T03:24:34.996Z,-10.53
2016-11-29T03:25:34.972Z,-10.47
2016-11-29T03:26:34.944Z,-10.6
2016-11-29T03:27:34.913Z,-10.68
2016-11-29T03:28:34.876Z,-10.77
2016-11-29T03:29:34.839Z,-10.86
2016-11-29T03:30:34.832Z,-10.86
2016-11-29T03:31:34.804Z,-10.92
2016-11-29T03:32:34.793Z,-10.95
2016-11-29T03:33:34.759Z,-10.89
2016-11-29T03:34:34.736Z,-10.93
2016-11-29T03:35:34.704Z,-10.92
2016-11-29T03:36:34.686Z,-10.95
2016-11-29T03:37:34.647Z,-11.11
2016-11-29T03:38:34.638Z,-11.07
2016-11-29T03:39:34.591Z,-11.24
2016-11-29T03:40:34.879Z,-11.29
2016-11-29T03:41:34.565Z,-11.34
2016-11-29T03:42:34.542Z,-11.06
2016-11-29T03:43:34.532Z,-10.89
2016-11-29T03:44:34.484Z,-10.7
2016-11-29T03:45:34.459Z,-10.7
2016-11-29T03:46:34.450Z,-10.86
2016-11-29T03:47:34.435Z,-10.96
2016-11-29T03:48:34.392Z,-11.02
2016-11-29T03:49:34.362Z,-11.22
2016-11-29T03:50:34.339Z,-11.25
2016-11-29T03:51:34.322Z,-11.2
2016-11-29T03:52:34.619Z,-11.14
2016-11-29T03:53:34.281Z,-11.27
2016-11-29T03:54:34.242Z,-11.02
2016-11-29T03:55:34.226Z,-10.88
2016-11-29T03:56:34.190Z,-10.88
2016-11-29T03:57:34.171Z,-10.73
2016-11-29T03:58:34.151Z,-10.8
2016-11-29T03:59:34.112Z,-10.89
2016-11-29T04:00:34.086Z,-10.88
2016-11-29T04:01:34.081Z,-10.8
2016-11-29T04:02:34.042Z,-10.74
2016-11-29T04:03:34.007Z,-10.6
2016-11-29T04:04:34.009Z,-10.77
2016-11-29T04:05:33.983Z,-10.68
2016-11-29T04:06:33.946Z,-10.68
2016-11-29T04:07:33.932Z,-10.9
2016-11-29T04:08:33.921Z,-10.95
2016-11-29T04:09:33.885Z,-11.13
2016-11-29T04:10:33.870Z,-11.11
2016-11-29T04:11:33.814Z,-11.27
2016-11-29T04:12:33.796Z,-11.31
2016-11-29T04:13:33.785Z,-11.32
2016-11-29T04:14:33.763Z,-11.35
2016-11-29T04:15:33.743Z,-11.32
2016-11-29T04:16:33.696Z,-11.32
2016-11-29T04:17:33.690Z,-11.32
2016-11-29T04:18:33.666Z,-11.24
2016-11-29T04:19:33.642Z,-11.07
2016-11-29T04:20:33.602Z,-10.98
2016-11-29T04:21:33.574Z,-10.99
2016-11-29T04:22:33.547Z,-10.92
2016-11-29T04:23:33.523Z,-10.9
2016-11-29T04:24:33.498Z,-10.71
2016-11-29T04:25:33.473Z,-10.73
2016-11-29T04:26:33.451Z,-10.52
2016-11-29T04:27:33.433Z,-10.38
2016-11-29T04:28:33.400Z,-10.31
2016-11-29T04:29:33.377Z,-10.23
2016-11-29T04:30:33.356Z,-10.13
2016-11-29T04:31:33.332Z,-10.17
2016-11-29T04:32:33.303Z,-10.2
2016-11-29T04:33:33.276Z,-10.1
2016-11-29T04:34:33.256Z,-10.08
2016-11-29T04:35:33.233Z,-10
2016-11-29T04:36:33.206Z,-10
2016-11-29T04:37:33.184Z,-10
2016-11-29T04:38:33.155Z,-9.99
2016-11-29T04:39:33.135Z,-9.88
2016-11-29T04:40:33.111Z,-9.95
2016-11-29T04:41:33.086Z,-10.1
2016-11-29T04:42:33.062Z,-10.06
2016-11-29T04:43:33.043Z,-9.97
2016-11-29T04:44:33.013Z,-9.79
2016-11-29T04:45:32.990Z,-9.75
2016-11-29T04:46:32.990Z,-9.7
2016-11-29T04:47:32.942Z,-9.6
2016-11-29T04:48:32.919Z,-9.54
2016-11-29T04:49:32.896Z,-9.5
2016-11-29T04:50:32.874Z,-9.67
2016-11-29T04:51:32.844Z,-9.61
2016-11-29T04:52:32.824Z,-9.49
2016-11-29T04:53:32.809Z,-9.3
2016-11-29T04:54:32.774Z,-9.27
2016-11-29T04:55:32.754Z,-9.26
2016-11-29T04:56:32.728Z,-9.24
2016-11-29T04:57:32.706Z,-9.34
2016-11-29T04:58:32.676Z,-9.18
2016-11-29T04:59:32.656Z,-8.96
2016-11-29T05:00:32.630Z,-8.96
2016-11-29T05:01:32.606Z,-8.99
2016-11-29T05:02:32.585Z,-8.92
2016-11-29T05:03:32.559Z,-9.07
2016-11-29T05:04:32.536Z,-9.12
2016-11-29T05:05:32.516Z,-9.17
2016-11-29T05:06:32.493Z,-9.24
2016-11-29T05:07:32.465Z,-9.28
2016-11-29T05:08:32.453Z,-9.43
2016-11-29T05:09:32.420Z,-9.38
2016-11-29T05:10:32.394Z,-9.34
2016-11-29T05:11:32.372Z,-9.24
2016-11-29T05:12:32.350Z,-9.1
2016-11-29T05:13:32.326Z,-8.96
2016-11-29T05:14:32.303Z,-8.92
2016-11-29T05:15:32.279Z,-8.91
2016-11-29T05:16:32.252Z,-8.99
2016-11-29T05:17:32.231Z,-8.96
2016-11-29T05:18:32.215Z,-8.97
2016-11-29T05:19:32.188Z,-8.84
2016-11-29T05:20:32.158Z,-8.84
2016-11-29T05:21:32.139Z,-8.68
2016-11-29T05:22:32.114Z,-8.56
2016-11-29T05:23:32.093Z,-8.55
2016-11-29T05:24:32.070Z,-8.43
2016-11-29T05:25:32.051Z,-8.27
2016-11-29T05:26:32.021Z,-8.29
2016-11-29T05:27:31.998Z,-8.28
2016-11-29T05:28:31.973Z,-8.32
2016-11-29T05:29:31.955Z,-8.24
2016-11-29T05:30:31.929Z,-8.28
2016-11-29T05:31:31.905Z,-8.31
2016-11-29T05:32:31.883Z,-8.45
2016-11-29T05:33:31.859Z,-8.29
2016-11-29T05:34:31.836Z,-8.4
2016-11-29T05:35:31.814Z,-8.29
2016-11-29T05:36:31.792Z,-8.37
2016-11-29T05:37:31.766Z,-8.42
2016-11-29T05:38:31.744Z,-8.35
2016-11-29T05:39:31.719Z,-8.45
2016-11-29T05:40:31.698Z,-8.55
2016-11-29T05:41:31.691Z,-8.46
2016-11-29T05:42:31.665Z,-8.58
2016-11-29T05:43:31.649Z,-8.7
2016-11-29T05:44:31.627Z,-8.64
2016-11-29T05:45:31.598Z,-8.66
2016-11-29T05:46:31.581Z,-8.67
2016-11-29T05:47:31.563Z,-8.56
2016-11-29T05:48:31.518Z,-8.47
2016-11-29T05:49:31.505Z,-8.43
2016-11-29T05:50:46.381Z,-8.42
2016-11-29T05:51:31.655Z,-8.37
2016-11-29T05:52:31.461Z,-8.37
2016-11-29T05:53:31.414Z,-8.43
2016-11-29T05:54:31.410Z,-8.29
2016-11-29T05:55:31.380Z,-8.17
2016-11-29T05:56:31.344Z,-8.18
2016-11-29T05:57:31.330Z,-8.24
2016-11-29T05:58:31.293Z,-8.25
2016-11-29T05:59:31.266Z,-8.27
2016-11-29T06:00:31.252Z,-8.22
2016-11-29T06:01:31.258Z,-8.21
2016-11-29T06:02:31.197Z,-8.16
2016-11-29T06:03:31.179Z,-8.22
2016-11-29T06:04:31.157Z,-8.16
2016-11-29T06:05:31.141Z,-8.16
2016-11-29T06:06:31.100Z,-8.25
2016-11-29T06:07:31.098Z,-8.28
2016-11-29T06:08:31.090Z,-8.35
2016-11-29T06:09:31.040Z,-8.35
2016-11-29T06:10:31.039Z,-8.29
2016-11-29T06:11:31.003Z,-8.25
2016-11-29T06:12:30.989Z,-8.46
2016-11-29T06:13:30.959Z,-8.34
2016-11-29T06:14:30.946Z,-8.42
2016-11-29T06:15:30.912Z,-8.37
2016-11-29T06:16:31.100Z,-8.49
2016-11-29T06:17:31.065Z,-8.58
2016-11-29T06:18:30.844Z,-8.49
2016-11-29T06:19:30.840Z,-8.61
2016-11-29T06:20:30.804Z,-8.55
2016-11-29T06:21:30.796Z,-8.49
2016-11-29T06:22:30.754Z,-8.45
2016-11-29T06:23:30.728Z,-8.45
2016-11-29T06:24:30.720Z,-8.46
2016-11-29T06:25:30.675Z,-8.39
2016-11-29T06:26:30.660Z,-8.37
2016-11-29T06:27:30.652Z,-8.35
2016-11-29T06:28:30.626Z,-8.22
2016-11-29T06:29:30.602Z,-8.16
2016-11-29T06:30:30.579Z,-8.17
2016-11-29T06:31:30.580Z,-8.17
2016-11-29T06:32:30.541Z,-8.27
2016-11-29T06:33:30.511Z,-8.25
2016-11-29T06:34:30.481Z,-8.22
2016-11-29T06:35:30.483Z,-8.34
2016-11-29T06:36:30.480Z,-8.46
2016-11-29T06:37:30.399Z,-8.39
2016-11-29T06:38:30.382Z,-8.46
2016-11-29T06:39:30.363Z,-8.47
2016-11-29T06:40:30.333Z,-8.4
2016-11-29T06:41:30.317Z,-8.34
2016-11-29T06:42:30.301Z,-8.22
2016-11-29T06:43:30.495Z,-8.14
2016-11-29T06:44:30.269Z,-8.08
2016-11-29T06:45:30.446Z,-7.92
2016-11-29T06:46:30.217Z,-7.77
2016-11-29T06:47:30.170Z,-7.64
2016-11-29T06:48:30.164Z,-7.57
2016-11-29T06:49:30.135Z,-7.34
2016-11-29T06:50:30.123Z,-7.37
2016-11-29T06:51:30.096Z,-7.38
2016-11-29T06:52:30.080Z,-7.29
2016-11-29T06:53:30.044Z,-7.23
2016-11-29T06:54:30.035Z,-7.17
2016-11-29T06:55:29.999Z,-7
2016-11-29T06:56:29.995Z,-6.95
2016-11-29T06:57:29.963Z,-6.85
2016-11-29T06:58:29.949Z,-6.77
2016-11-29T06:59:29.916Z,-6.82
2016-11-29T07:00:29.883Z,-6.56
2016-11-29T07:01:29.877Z,-6.37
2016-11-29T07:02:29.841Z,-6.37
2016-11-29T07:03:29.839Z,-6.19
2016-11-29T07:04:29.828Z,-6.2
2016-11-29T07:05:29.801Z,-6.27
2016-11-29T07:06:29.755Z,-6.23
2016-11-29T07:07:29.743Z,-6.19
2016-11-29T07:08:29.728Z,-6.06
2016-11-29T07:09:29.723Z,-5.92
2016-11-29T07:10:29.666Z,-5.99
2016-11-29T07:11:29.660Z,-5.88
2016-11-29T07:12:29.823Z,-5.67
2016-11-29T07:13:29.632Z,-5.46
2016-11-29T07:14:29.597Z,-5.3
2016-11-29T07:15:29.568Z,-5.16
2016-11-29T07:16:29.559Z,-5.09
2016-11-29T07:17:29.546Z,-4.9
2016-11-29T07:18:29.505Z,-4.9
2016-11-29T07:19:29.474Z,-4.94
2016-11-29T07:20:29.451Z,-5.03
2016-11-29T07:21:29.441Z,-4.95
2016-11-29T07:22:29.421Z,-4.84
2016-11-29T07:23:29.397Z,-4.93
2016-11-29T07:24:29.368Z,-4.83
2016-11-29T07:25:29.361Z,-4.81
2016-11-29T07:26:29.337Z,-4.76
2016-11-29T07:27:29.323Z,-4.41
2016-11-29T07:28:29.311Z,-4.41
2016-11-29T07:29:29.273Z,-4.45
2016-11-29T07:30:29.273Z,-4.62
2016-11-29T07:31:29.248Z,-4.45
2016-11-29T07:32:29.218Z,-4.12
2016-11-29T07:33:29.214Z,-4.01
2016-11-29T07:34:29.194Z,-3.98
2016-11-29T07:35:29.150Z,-4.2
2016-11-29T07:36:29.136Z,-4.3
2016-11-29T07:37:29.120Z,-4.09
2016-11-29T07:38:29.096Z,-3.94
2016-11-29T07:39:29.279Z,-3.94
2016-11-29T07:40:29.055Z,-4.09
2016-11-29T07:41:29.042Z,-4.09
2016-11-29T07:42:29.034Z,-3.95
2016-11-29T07:43:28.990Z,-3.65
2016-11-29T07:44:28.974Z,-3.68
2016-11-29T07:45:28.947Z,-3.69
2016-11-29T07:46:28.948Z,-3.49
2016-11-29T07:47:28.930Z,-3.4
2016-11-29T07:48:28.896Z,-3.57
2016-11-29T07:49:28.861Z,-3.52
2016-11-29T07:50:28.835Z,-3.4
2016-11-29T07:51:28.845Z,-3.26
2016-11-29T07:52:28.829Z,-3.23
2016-11-29T07:53:28.793Z,-3.25
2016-11-29T07:54:28.773Z,-3.18
2016-11-29T07:55:28.742Z,-2.95
2016-11-29T07:56:28.749Z,-2.65
2016-11-29T07:57:28.705Z,-2.77
2016-11-29T07:58:28.705Z,-2.93
2016-11-29T07:59:28.668Z,-2.76
2016-11-29T08:00:28.639Z,-3.1
2016-11-29T08:01:28.949Z,-2.55
2016-11-29T08:02:28.633Z,-2.21
2016-11-29T08:03:28.593Z,-2.29
2016-11-29T08:04:28.572Z,-2.72
2016-11-29T08:05:28.592Z,-2.61
2016-11-29T08:06:28.559Z,-2.37
2016-11-29T08:07:28.526Z,-3.25
2016-11-29T08:08:28.503Z,-3.13
2016-11-29T08:09:28.467Z,-2.72
2016-11-29T08:10:28.465Z,-2.43
2016-11-29T08:11:28.427Z,-2.56
2016-11-29T08:12:28.443Z,-2.21
2016-11-29T08:13:28.411Z,-2.28
2016-11-29T08:14:28.378Z,-2.21
2016-11-29T08:15:28.362Z,-2.18
2016-11-29T08:16:28.361Z,-2.04
2016-11-29T08:17:28.339Z,-1.83
2016-11-29T08:18:28.305Z,-2.22
2016-11-29T08:19:28.289Z,-2.69
2016-11-29T08:20:28.296Z,-2.65
2016-11-29T08:21:28.261Z,-2.33
2016-11-29T08:22:28.233Z,-1.9
2016-11-29T08:23:28.217Z,-1.28
2016-11-29T08:24:28.205Z,-1.05
2016-11-29T08:25:28.198Z,-0.85
2016-11-29T08:26:28.145Z,-0.39
2016-11-29T08:27:28.143Z,-0.13
2016-11-29T08:28:28.136Z,0.13
2016-11-29T08:29:28.114Z,-0.14
2016-11-29T08:30:28.081Z,-0.76
2016-11-29T08:31:28.062Z,-1.2
2016-11-29T08:32:28.053Z,-1.15
2016-11-29T08:33:28.044Z,-1.18
2016-11-29T08:34:28.043Z,-1.21
2016-11-29T08:35:27.988Z,-0.73
2016-11-29T08:36:27.997Z,-0.68
2016-11-29T08:37:28.263Z,-0.95
2016-11-29T08:38:27.950Z,-0.89
2016-11-29T08:39:27.937Z,-1.15
2016-11-29T08:40:27.899Z,-1.32
2016-11-29T08:41:27.884Z,-1.17
2016-11-29T08:42:27.878Z,-1.23
2016-11-29T08:43:27.852Z,-1.2
2016-11-29T08:44:27.844Z,-1.28
2016-11-29T08:45:27.847Z,-1.35
2016-11-29T08:46:27.830Z,-0.83
2016-11-29T08:47:27.810Z,-0.7
2016-11-29T08:48:28.085Z,-0.14
2016-11-29T08:49:27.767Z,0.1
2016-11-29T08:50:27.756Z,-0.49
2016-11-29T08:51:27.741Z,-0.65
2016-11-29T08:52:27.701Z,-0.37
2016-11-29T08:53:27.693Z,-0.34
2016-11-29T08:54:27.686Z,-0.38
2016-11-29T08:55:27.665Z,-0.27
2016-11-29T08:56:27.656Z,-0.39
2016-11-29T08:57:27.612Z,-0.37
2016-11-29T08:58:27.581Z,-0.42
2016-11-29T08:59:27.592Z,-0.05
2016-11-29T09:00:27.579Z,-0.38
2016-11-29T09:01:27.568Z,-0.68
2016-11-29T09:02:27.536Z,-0.49
2016-11-29T09:03:27.535Z,-0.76
2016-11-29T09:04:27.487Z,-0.95
2016-11-29T09:05:27.494Z,-0.9
2016-11-29T09:06:27.468Z,-0.78
2016-11-29T09:07:27.450Z,-0.8
2016-11-29T09:08:27.436Z,-0.65
2016-11-29T09:09:27.425Z,-0.74
2016-11-29T09:10:27.397Z,-0.92
2016-11-29T09:11:27.375Z,-0.9
2016-11-29T09:12:27.376Z,-0.38
2016-11-29T09:13:27.363Z,0.26
2016-11-29T09:14:27.314Z,0.52
2016-11-29T09:15:27.394Z,0.67
2016-11-29T09:16:27.304Z,0.33
2016-11-29T09:17:27.277Z,-0.06
2016-11-29T09:18:27.239Z,-0.7
2016-11-29T09:19:27.257Z,-0.39
2016-11-29T09:20:27.207Z,-0.14
2016-11-29T09:21:27.197Z,0.63
2016-11-29T09:22:27.208Z,1.06
2016-11-29T09:23:27.166Z,1.14
2016-11-29T09:24:27.160Z,1.61
2016-11-29T09:25:27.145Z,1.1
2016-11-29T09:26:27.131Z,0.33
2016-11-29T09:27:27.112Z,0.17
2016-11-29T09:28:27.106Z,0.71
2016-11-29T09:29:27.362Z,1.2
2016-11-29T09:30:27.064Z,1.9
2016-11-29T09:31:27.053Z,2.37
2016-11-29T09:32:27.020Z,0.62
2016-11-29T09:33:27.031Z,-0.76
2016-11-29T09:34:27.004Z,-0.26
2016-11-29T09:35:26.997Z,-0.34
2016-11-29T09:36:26.962Z,-0.34
2016-11-29T09:37:26.967Z,-0.16
2016-11-29T09:38:26.925Z,0.2
2016-11-29T09:39:26.912Z,0.49
2016-11-29T09:40:26.945Z,0.7
2016-11-29T09:41:26.886Z,0.9
2016-11-29T09:42:26.881Z,0.9
2016-11-29T09:43:26.845Z,1.11
2016-11-29T09:44:26.844Z,1.26
2016-11-29T09:45:26.822Z,1.32
2016-11-29T09:46:26.789Z,1.29
2016-11-29T09:47:26.777Z,1.5
2016-11-29T09:48:26.775Z,1.95
2016-11-29T09:49:26.752Z,1.93
2016-11-29T09:50:26.757Z,1.31
2016-11-29T09:51:26.730Z,1.29
2016-11-29T09:52:26.731Z,1.53
2016-11-29T09:53:26.696Z,1.52
2016-11-29T09:54:26.688Z,1.39
2016-11-29T09:55:26.978Z,1.44
2016-11-29T09:56:26.661Z,1.43
2016-11-29T09:57:26.649Z,1.2
2016-11-29T09:58:26.618Z,1.29
2016-11-29T09:59:26.584Z,1.14
2016-11-29T10:00:26.578Z,1.7
2016-11-29T10:01:26.554Z,1.61
2016-11-29T10:02:26.568Z,1.39
2016-11-29T10:03:26.549Z,0.93
2016-11-29T10:04:26.538Z,1.07
2016-11-29T10:05:26.515Z,1.29
2016-11-29T10:06:26.481Z,1.68
2016-11-29T10:07:26.477Z,1.68
2016-11-29T10:08:26.465Z,1.86
2016-11-29T10:09:26.469Z,2.38
2016-11-29T10:10:26.445Z,2.3
2016-11-29T10:11:26.433Z,2.5
2016-11-29T10:12:26.402Z,2.14
2016-11-29T10:13:26.374Z,1.75
2016-11-29T10:14:26.377Z,1.46
2016-11-29T10:15:26.347Z,1.63
2016-11-29T10:16:26.338Z,1.43
2016-11-29T10:17:26.324Z,1.21
2016-11-29T10:18:26.307Z,1.32
2016-11-29T10:19:26.277Z,1.68
2016-11-29T10:20:26.276Z,1.5
2016-11-29T10:21:26.264Z,1.28
2016-11-29T10:22:26.226Z,1.17
2016-11-29T10:23:26.235Z,1.13
2016-11-29T10:24:26.224Z,0.89
2016-11-29T10:25:26.183Z,0.81
2016-11-29T10:26:26.172Z,0.64
2016-11-29T10:27:26.171Z,1.1
2016-11-29T10:28:26.162Z,1.46
2016-11-29T10:29:26.115Z,1.63
2016-11-29T10:30:26.117Z,1.9
2016-11-29T10:31:26.109Z,1.86
2016-11-29T10:32:26.066Z,1.54
2016-11-29T10:33:26.058Z,1.25
2016-11-29T10:34:26.053Z,1.16
2016-11-29T10:35:26.025Z,1.25
2016-11-29T10:36:26.033Z,1.16
2016-11-29T10:37:26.004Z,1.25
2016-11-29T10:38:25.984Z,1.02
2016-11-29T10:39:25.965Z,0.37
2016-11-29T10:40:25.974Z,0.16
2016-11-29T10:41:25.940Z,-0.2
2016-11-29T10:42:25.925Z,0.01
2016-11-29T10:43:25.890Z,0.13
2016-11-29T10:44:25.894Z,0.17
2016-11-29T10:45:25.877Z,0.05
2016-11-29T10:46:25.872Z,-0.17
2016-11-29T10:47:25.852Z,0.04
2016-11-29T10:48:25.832Z,0.38
2016-11-29T10:49:25.793Z,0.23
2016-11-29T10:50:25.773Z,0.62
2016-11-29T10:51:25.769Z,0.4
2016-11-29T10:52:25.751Z,0.57
2016-11-29T10:53:25.753Z,0.25
2016-11-29T10:54:25.711Z,0.45
2016-11-29T10:55:25.702Z,0.38
2016-11-29T10:56:25.695Z,0.44
2016-11-29T10:57:25.721Z,0.63
2016-11-29T10:58:25.638Z,0.63
2016-11-29T10:59:25.622Z,0.82
2016-11-29T11:00:25.619Z,1.13
2016-11-29T11:01:25.623Z,1.16
2016-11-29T11:02:25.582Z,1.53
2016-11-29T11:03:25.575Z,1.71
2016-11-29T11:04:25.563Z,1.38
2016-11-29T11:05:25.544Z,1.21
2016-11-29T11:06:25.542Z,1.1
2016-11-29T11:07:25.513Z,1.26
2016-11-29T11:08:25.502Z,1.34
2016-11-29T11:09:25.774Z,1.26
2016-11-29T11:10:25.471Z,1.1
2016-11-29T11:11:25.424Z,0.78
2016-11-29T11:12:25.449Z,0.35
2016-11-29T11:13:25.396Z,0.51
2016-11-29T11:14:25.413Z,1
2016-11-29T11:15:25.369Z,1.28
2016-11-29T11:16:25.359Z,1.24
2016-11-29T11:17:25.353Z,1.18
2016-11-29T11:18:25.352Z,1.1
2016-11-29T11:19:25.320Z,1.14
2016-11-29T11:20:25.303Z,1.17
2016-11-29T11:21:25.287Z,1.13
2016-11-29T11:22:25.285Z,1.06
2016-11-29T11:23:25.252Z,0.95
2016-11-29T11:24:25.544Z,1.04
2016-11-29T11:25:25.219Z,1.06
2016-11-29T11:26:25.228Z,1.04
2016-11-29T11:27:25.196Z,1.11
2016-11-29T11:28:25.156Z,1.08
2016-11-29T11:29:25.177Z,-0.16
2016-11-29T11:30:25.161Z,0.15
2016-11-29T11:31:25.130Z,0.33
2016-11-29T11:32:25.093Z,0.31
2016-11-29T11:33:25.091Z,0.35
2016-11-29T11:34:25.068Z,-0.71
2016-11-29T11:35:25.055Z,-0.5
2016-11-29T11:36:25.043Z,0.01
2016-11-29T11:37:31.280Z,-0.83
2016-11-29T11:38:25.016Z,-0.32
2016-11-29T11:39:25.009Z,0.13
2016-11-29T11:40:24.988Z,0.25
2016-11-29T11:41:24.981Z,-0.13
2016-11-29T11:42:24.949Z,0.2
2016-11-29T11:43:24.948Z,0.6
2016-11-29T11:44:24.934Z,0.95
2016-11-29T11:45:24.880Z,1.11
2016-11-29T11:46:24.893Z,0.74
2016-11-29T11:47:24.851Z,0.93
2016-11-29T11:48:24.858Z,0.84
2016-11-29T11:49:24.844Z,0.4
2016-11-29T11:50:24.825Z,0.34
2016-11-29T11:51:24.810Z,0.3
2016-11-29T11:52:24.782Z,0.3
2016-11-29T11:53:24.778Z,0.44
2016-11-29T11:54:25.070Z,0.52
2016-11-29T11:55:24.731Z,0.51
2016-11-29T11:56:24.721Z,0.49
2016-11-29T11:57:24.718Z,0.45
2016-11-29T11:58:24.886Z,0.49
2016-11-29T11:59:24.670Z,0.53
2016-11-29T12:00:24.642Z,0.34
2016-11-29T12:01:24.631Z,0.53
2016-11-29T12:02:24.624Z,0.22
2016-11-29T12:03:24.595Z,0.52
2016-11-29T12:04:24.572Z,0.63
2016-11-29T12:05:24.553Z,0.62
2016-11-29T12:06:24.556Z,-0.09
2016-11-29T12:07:24.532Z,0.13
2016-11-29T12:08:24.516Z,-0.09
2016-11-29T12:09:24.517Z,0.12
2016-11-29T12:10:24.501Z,0.13
2016-11-29T12:11:24.463Z,0.15
2016-11-29T12:12:24.468Z,0.3
2016-11-29T12:13:24.431Z,0.74
2016-11-29T12:14:24.450Z,0.78
2016-11-29T12:15:24.714Z,0.45
2016-11-29T12:16:24.389Z,-0.8
2016-11-29T12:17:24.372Z,-1.44
2016-11-29T12:18:24.349Z,-1.32
2016-11-29T12:19:24.351Z,-0.93
2016-11-29T12:20:24.336Z,-0.49
2016-11-29T12:21:24.302Z,0.01
2016-11-29T12:22:24.273Z,0.2
2016-11-29T12:23:24.279Z,0.05
2016-11-29T12:24:24.235Z,-0.71
2016-11-29T12:25:24.248Z,-1.11
2016-11-29T12:26:24.200Z,-0.95
2016-11-29T12:27:24.203Z,-0.63
2016-11-29T12:28:24.166Z,-0.13
2016-11-29T12:29:24.159Z,0.19
2016-11-29T12:30:24.465Z,0.34
2016-11-29T12:31:24.114Z,0.48
2016-11-29T12:32:24.118Z,0.49
2016-11-29T12:33:24.100Z,0.34
2016-11-29T12:34:24.079Z,0.33
2016-11-29T12:35:24.066Z,0.31
2016-11-29T12:36:24.048Z,0.26
2016-11-29T12:37:24.034Z,0.6
2016-11-29T12:38:24.326Z,0.63
2016-11-29T12:39:23.992Z,0.67
2016-11-29T12:40:23.978Z,0.49
2016-11-29T12:41:23.972Z,0.26
2016-11-29T12:42:23.941Z,0.17
2016-11-29T12:43:23.924Z,0.34
2016-11-29T12:44:23.916Z,0.33
2016-11-29T12:45:23.896Z,0.12
2016-11-29T12:46:23.859Z,-0.09
2016-11-29T12:47:23.867Z,0.17
2016-11-29T12:48:23.848Z,0.56
2016-11-29T12:49:23.814Z,0.49
2016-11-29T12:50:23.797Z,0.1
2016-11-29T12:51:23.789Z,0.17
2016-11-29T12:52:23.771Z,0.07
2016-11-29T12:53:23.753Z,-0.17